KLEB/LEB METAR and TAF weather

Enter ICAO airport designator
Station Type Date Time Source
KLEB METAR 2024/05/28 22:53 UTC NOAA

KLEB 282253Z 27010G19KT 10SM BKN060 BKN070 23/13 A2965 RMK AO2 SLP032 T02280128


Station Type Date Time Source
KLEB Decoded METAR 2024/05/28 22:53 UTC NOAA

LEBANON MUNICIPAL AIRPORT, NH, United States (KLEB) 43-38N 072-18W 171M
May 28, 2024 - 06:53 PM EDT / 2024.05.28 2253 UTC
Wind: from the W (270 degrees) at 12 MPH (10 KT) gusting to 22 MPH (19 KT):0
Visibility: 10 mile(s):0
Sky conditions: mostly cloudy
Temperature: 73.0 F (22.8 C)
Dew Point: 55.0 F (12.8 C)
Relative Humidity: 53%
Pressure (altimeter): 29.65 in. Hg (1004 hPa)
ob: KLEB 282253Z 27010G19KT 10SM BKN060 BKN070 23/13 A2965 RMK AO2 SLP032 T02280128
cycle: 23

Station Type Date Time Source
KLEB TAF 2024/05/28 22:04 UTC NOAA